sensor_id;sensor_type;location;lat;lon;timestamp;P1;durP1;ratioP1;P2;durP2;ratioP2
9042;SDS011;4556;49.150;8.808;2022-07-23T00:01:26;8.27;;;6.70;;
9042;SDS011;4556;49.150;8.808;2022-07-23T00:03:53;7.67;;;6.97;;
9042;SDS011;4556;49.150;8.808;2022-07-23T00:06:22;7.87;;;7.07;;
9042;SDS011;4556;49.150;8.808;2022-07-23T00:08:50;7.33;;;6.63;;
9042;SDS011;4556;49.150;8.808;2022-07-23T00:11:18;8.70;;;7.30;;
9042;SDS011;4556;49.150;8.808;2022-07-23T00:13:47;7.60;;;6.90;;
9042;SDS011;4556;49.150;8.808;2022-07-23T00:16:14;7.63;;;6.90;;
9042;SDS011;4556;49.150;8.808;2022-07-23T00:18:42;8.97;;;7.40;;
9042;SDS011;4556;49.150;8.808;2022-07-23T00:21:09;9.77;;;7.23;;
9042;SDS011;4556;49.150;8.808;2022-07-23T00:23:37;8.87;;;7.10;;
9042;SDS011;4556;49.150;8.808;2022-07-23T00:26:04;12.30;;;7.47;;
9042;SDS011;4556;49.150;8.808;2022-07-23T00:28:32;7.60;;;6.90;;
9042;SDS011;4556;49.150;8.808;2022-07-23T00:30:59;8.57;;;7.60;;
9042;SDS011;4556;49.150;8.808;2022-07-23T00:33:26;9.90;;;7.43;;
9042;SDS011;4556;49.150;8.808;2022-07-23T00:35:53;7.67;;;6.90;;
9042;SDS011;4556;49.150;8.808;2022-07-23T00:38:20;8.80;;;7.67;;
9042;SDS011;4556;49.150;8.808;2022-07-23T00:40:49;9.83;;;7.87;;
9042;SDS011;4556;49.150;8.808;2022-07-23T00:43:16;8.47;;;7.60;;
9042;SDS011;4556;49.150;8.808;2022-07-23T00:45:46;8.83;;;7.93;;
9042;SDS011;4556;49.150;8.808;2022-07-23T00:48:12;10.43;;;7.83;;
9042;SDS011;4556;49.150;8.808;2022-07-23T00:50:39;8.90;;;7.97;;
9042;SDS011;4556;49.150;8.808;2022-07-23T00:53:07;8.17;;;7.37;;
9042;SDS011;4556;49.150;8.808;2022-07-23T00:55:34;8.03;;;7.20;;
9042;SDS011;4556;49.150;8.808;2022-07-23T00:58:03;9.70;;;7.20;;
9042;SDS011;4556;49.150;8.808;2022-07-23T01:00:31;10.70;;;7.53;;
9042;SDS011;4556;49.150;8.808;2022-07-23T01:02:58;7.60;;;6.87;;
9042;SDS011;4556;49.150;8.808;2022-07-23T01:05:25;8.43;;;7.40;;
9042;SDS011;4556;49.150;8.808;2022-07-23T01:07:52;7.73;;;7.00;;
9042;SDS011;4556;49.150;8.808;2022-07-23T01:10:19;7.73;;;7.00;;
9042;SDS011;4556;49.150;8.808;2022-07-23T01:12:59;7.90;;;7.10;;
9042;SDS011;4556;49.150;8.808;2022-07-23T01:15:29;7.93;;;7.13;;
9042;SDS011;4556;49.150;8.808;2022-07-23T01:17:57;7.53;;;6.73;;
9042;SDS011;4556;49.150;8.808;2022-07-23T01:20:24;9.33;;;6.60;;
9042;SDS011;4556;49.150;8.808;2022-07-23T01:22:53;7.97;;;6.97;;
9042;SDS011;4556;49.150;8.808;2022-07-23T01:25:20;7.57;;;6.57;;
9042;SDS011;4556;49.150;8.808;2022-07-23T01:27:47;7.90;;;7.10;;
9042;SDS011;4556;49.150;8.808;2022-07-23T01:30:15;7.60;;;6.90;;
9042;SDS011;4556;49.150;8.808;2022-07-23T01:32:42;7.63;;;6.87;;
9042;SDS011;4556;49.150;8.808;2022-07-23T01:35:09;7.93;;;7.03;;
9042;SDS011;4556;49.150;8.808;2022-07-23T01:37:37;7.67;;;6.93;;
9042;SDS011;4556;49.150;8.808;2022-07-23T01:40:06;8.77;;;7.20;;
9042;SDS011;4556;49.150;8.808;2022-07-23T01:42:33;9.50;;;7.13;;
9042;SDS011;4556;49.150;8.808;2022-07-23T01:45:01;7.73;;;6.87;;
9042;SDS011;4556;49.150;8.808;2022-07-23T01:47:30;8.30;;;7.50;;
9042;SDS011;4556;49.150;8.808;2022-07-23T01:49:57;8.53;;;7.73;;
9042;SDS011;4556;49.150;8.808;2022-07-23T01:52:24;13.47;;;7.77;;
9042;SDS011;4556;49.150;8.808;2022-07-23T01:54:51;7.97;;;7.00;;
9042;SDS011;4556;49.150;8.808;2022-07-23T01:57:20;8.00;;;7.20;;
9042;SDS011;4556;49.150;8.808;2022-07-23T01:59:47;9.40;;;6.47;;
9042;SDS011;4556;49.150;8.808;2022-07-23T02:02:14;7.53;;;6.83;;
9042;SDS011;4556;49.150;8.808;2022-07-23T02:04:41;10.07;;;6.63;;
9042;SDS011;4556;49.150;8.808;2022-07-23T02:07:08;7.30;;;6.57;;
9042;SDS011;4556;49.150;8.808;2022-07-23T02:09:35;7.87;;;6.77;;
9042;SDS011;4556;49.150;8.808;2022-07-23T02:12:02;7.60;;;6.67;;
9042;SDS011;4556;49.150;8.808;2022-07-23T02:14:31;9.30;;;6.90;;
9042;SDS011;4556;49.150;8.808;2022-07-23T02:16:58;10.43;;;7.13;;
9042;SDS011;4556;49.150;8.808;2022-07-23T02:19:25;7.73;;;6.73;;
9042;SDS011;4556;49.150;8.808;2022-07-23T02:21:52;7.50;;;6.80;;
9042;SDS011;4556;49.150;8.808;2022-07-23T02:24:19;7.63;;;6.87;;
9042;SDS011;4556;49.150;8.808;2022-07-23T02:26:46;8.43;;;7.43;;
9042;SDS011;4556;49.150;8.808;2022-07-23T02:29:13;12.63;;;7.57;;
9042;SDS011;4556;49.150;8.808;2022-07-23T02:31:42;7.93;;;7.03;;
9042;SDS011;4556;49.150;8.808;2022-07-23T02:34:09;8.00;;;6.70;;
9042;SDS011;4556;49.150;8.808;2022-07-23T02:36:37;7.93;;;6.73;;
9042;SDS011;4556;49.150;8.808;2022-07-23T02:39:04;8.10;;;7.30;;
9042;SDS011;4556;49.150;8.808;2022-07-23T02:41:32;9.27;;;7.53;;
9042;SDS011;4556;49.150;8.808;2022-07-23T02:43:59;7.97;;;7.13;;
9042;SDS011;4556;49.150;8.808;2022-07-23T02:46:26;8.20;;;7.13;;
9042;SDS011;4556;49.150;8.808;2022-07-23T02:48:54;9.43;;;7.90;;
9042;SDS011;4556;49.150;8.808;2022-07-23T02:51:23;9.53;;;7.60;;
9042;SDS011;4556;49.150;8.808;2022-07-23T02:53:50;8.80;;;7.20;;
9042;SDS011;4556;49.150;8.808;2022-07-23T02:56:17;8.20;;;7.47;;
9042;SDS011;4556;49.150;8.808;2022-07-23T02:58:44;8.27;;;7.43;;
9042;SDS011;4556;49.150;8.808;2022-07-23T03:01:12;9.33;;;7.17;;
9042;SDS011;4556;49.150;8.808;2022-07-23T03:03:39;7.97;;;7.27;;
9042;SDS011;4556;49.150;8.808;2022-07-23T03:06:08;9.87;;;7.53;;
9042;SDS011;4556;49.150;8.808;2022-07-23T03:08:35;8.83;;;7.53;;
9042;SDS011;4556;49.150;8.808;2022-07-23T03:11:02;9.33;;;7.97;;
9042;SDS011;4556;49.150;8.808;2022-07-23T03:13:29;9.37;;;7.50;;
9042;SDS011;4556;49.150;8.808;2022-07-23T03:15:56;9.20;;;7.97;;
9042;SDS011;4556;49.150;8.808;2022-07-23T03:18:23;7.90;;;7.20;;
9042;SDS011;4556;49.150;8.808;2022-07-23T03:20:50;8.53;;;7.60;;
9042;SDS011;4556;49.150;8.808;2022-07-23T03:23:18;8.40;;;7.60;;
9042;SDS011;4556;49.150;8.808;2022-07-23T03:25:45;10.00;;;7.17;;
9042;SDS011;4556;49.150;8.808;2022-07-23T03:28:13;7.93;;;7.13;;
9042;SDS011;4556;49.150;8.808;2022-07-23T03:30:40;8.43;;;6.80;;
9042;SDS011;4556;49.150;8.808;2022-07-23T03:33:07;9.13;;;6.80;;
9042;SDS011;4556;49.150;8.808;2022-07-23T03:35:34;8.00;;;7.03;;
9042;SDS011;4556;49.150;8.808;2022-07-23T03:38:02;9.07;;;6.87;;
9042;SDS011;4556;49.150;8.808;2022-07-23T03:40:30;9.20;;;6.57;;
9042;SDS011;4556;49.150;8.808;2022-07-23T03:42:57;9.40;;;7.37;;
9042;SDS011;4556;49.150;8.808;2022-07-23T03:45:24;7.70;;;7.00;;
9042;SDS011;4556;49.150;8.808;2022-07-23T03:47:51;8.20;;;6.87;;
9042;SDS011;4556;49.150;8.808;2022-07-23T03:50:19;7.93;;;7.13;;
9042;SDS011;4556;49.150;8.808;2022-07-23T03:52:46;7.53;;;6.80;;
9042;SDS011;4556;49.150;8.808;2022-07-23T03:55:13;11.10;;;6.93;;
9042;SDS011;4556;49.150;8.808;2022-07-23T03:57:42;9.23;;;7.17;;
9042;SDS011;4556;49.150;8.808;2022-07-23T04:00:10;7.80;;;7.00;;
9042;SDS011;4556;49.150;8.808;2022-07-23T04:02:38;7.87;;;7.07;;
9042;SDS011;4556;49.150;8.808;2022-07-23T04:05:06;8.17;;;7.37;;
9042;SDS011;4556;49.150;8.808;2022-07-23T04:07:33;8.67;;;7.00;;
9042;SDS011;4556;49.150;8.808;2022-07-23T04:10:00;9.57;;;7.33;;
9042;SDS011;4556;49.150;8.808;2022-07-23T04:12:28;8.00;;;7.20;;
9042;SDS011;4556;49.150;8.808;2022-07-23T04:14:56;10.50;;;7.67;;
9042;SDS011;4556;49.150;8.808;2022-07-23T04:17:23;9.93;;;7.47;;
9042;SDS011;4556;49.150;8.808;2022-07-23T04:19:50;11.57;;;7.60;;
9042;SDS011;4556;49.150;8.808;2022-07-23T04:22:17;8.73;;;7.63;;
9042;SDS011;4556;49.150;8.808;2022-07-23T04:24:44;8.77;;;7.83;;
9042;SDS011;4556;49.150;8.808;2022-07-23T04:27:14;9.70;;;7.00;;
9042;SDS011;4556;49.150;8.808;2022-07-23T04:29:41;7.80;;;7.00;;
9042;SDS011;4556;49.150;8.808;2022-07-23T04:32:09;9.13;;;7.27;;
9042;SDS011;4556;49.150;8.808;2022-07-23T04:34:36;11.27;;;7.33;;
9042;SDS011;4556;49.150;8.808;2022-07-23T04:37:04;7.83;;;6.80;;
9042;SDS011;4556;49.150;8.808;2022-07-23T04:39:31;8.17;;;6.30;;
9042;SDS011;4556;49.150;8.808;2022-07-23T04:41:58;8.93;;;7.10;;
9042;SDS011;4556;49.150;8.808;2022-07-23T04:44:25;8.10;;;6.10;;
9042;SDS011;4556;49.150;8.808;2022-07-23T04:46:52;7.27;;;6.17;;
9042;SDS011;4556;49.150;8.808;2022-07-23T04:49:21;8.00;;;6.13;;
9042;SDS011;4556;49.150;8.808;2022-07-23T04:51:48;7.90;;;6.50;;
9042;SDS011;4556;49.150;8.808;2022-07-23T04:54:15;6.77;;;6.13;;
9042;SDS011;4556;49.150;8.808;2022-07-23T04:56:44;7.03;;;6.27;;
9042;SDS011;4556;49.150;8.808;2022-07-23T04:59:11;7.37;;;6.17;;
9042;SDS011;4556;49.150;8.808;2022-07-23T05:01:38;6.87;;;6.07;;
9042;SDS011;4556;49.150;8.808;2022-07-23T05:04:06;8.00;;;6.03;;
9042;SDS011;4556;49.150;8.808;2022-07-23T05:06:35;7.63;;;5.60;;
9042;SDS011;4556;49.150;8.808;2022-07-23T05:09:02;6.30;;;5.67;;
9042;SDS011;4556;49.150;8.808;2022-07-23T05:11:29;7.33;;;6.00;;
9042;SDS011;4556;49.150;8.808;2022-07-23T05:13:56;11.73;;;6.30;;
9042;SDS011;4556;49.150;8.808;2022-07-23T05:16:23;6.80;;;5.90;;
9042;SDS011;4556;49.150;8.808;2022-07-23T05:18:50;6.60;;;5.80;;
9042;SDS011;4556;49.150;8.808;2022-07-23T05:21:18;7.03;;;5.43;;
9042;SDS011;4556;49.150;8.808;2022-07-23T05:23:47;6.27;;;5.23;;
9042;SDS011;4556;49.150;8.808;2022-07-23T05:26:14;6.60;;;5.93;;
9042;SDS011;4556;49.150;8.808;2022-07-23T05:28:42;5.97;;;5.37;;
9042;SDS011;4556;49.150;8.808;2022-07-23T05:31:08;6.80;;;6.20;;
9042;SDS011;4556;49.150;8.808;2022-07-23T05:33:35;8.27;;;5.83;;
9042;SDS011;4556;49.150;8.808;2022-07-23T05:36:03;6.70;;;5.97;;
9042;SDS011;4556;49.150;8.808;2022-07-23T05:38:31;7.80;;;6.30;;
9042;SDS011;4556;49.150;8.808;2022-07-23T05:41:00;9.93;;;6.37;;
9042;SDS011;4556;49.150;8.808;2022-07-23T05:43:27;8.07;;;6.60;;
9042;SDS011;4556;49.150;8.808;2022-07-23T05:45:54;7.00;;;6.30;;
9042;SDS011;4556;49.150;8.808;2022-07-23T05:48:21;7.87;;;7.10;;
9042;SDS011;4556;49.150;8.808;2022-07-23T05:50:48;8.80;;;6.20;;
9042;SDS011;4556;49.150;8.808;2022-07-23T05:53:15;7.40;;;6.70;;
9042;SDS011;4556;49.150;8.808;2022-07-23T05:55:42;8.63;;;6.40;;
9042;SDS011;4556;49.150;8.808;2022-07-23T05:58:11;7.40;;;6.70;;
9042;SDS011;4556;49.150;8.808;2022-07-23T06:00:38;7.60;;;6.90;;
9042;SDS011;4556;49.150;8.808;2022-07-23T06:03:05;9.60;;;7.53;;
9042;SDS011;4556;49.150;8.808;2022-07-23T06:05:32;8.80;;;7.30;;
9042;SDS011;4556;49.150;8.808;2022-07-23T06:07:59;10.47;;;7.00;;
9042;SDS011;4556;49.150;8.808;2022-07-23T06:10:26;9.00;;;7.40;;
9042;SDS011;4556;49.150;8.808;2022-07-23T06:12:53;8.20;;;6.77;;
9042;SDS011;4556;49.150;8.808;2022-07-23T06:15:22;8.80;;;7.90;;
9042;SDS011;4556;49.150;8.808;2022-07-23T06:17:49;7.97;;;7.17;;
9042;SDS011;4556;49.150;8.808;2022-07-23T06:20:16;8.33;;;7.50;;
9042;SDS011;4556;49.150;8.808;2022-07-23T06:22:46;10.00;;;7.53;;
9042;SDS011;4556;49.150;8.808;2022-07-23T06:25:13;9.07;;;6.93;;
9042;SDS011;4556;49.150;8.808;2022-07-23T06:27:41;9.70;;;7.33;;
9042;SDS011;4556;49.150;8.808;2022-07-23T06:30:09;10.63;;;7.17;;
9042;SDS011;4556;49.150;8.808;2022-07-23T06:32:38;7.80;;;7.00;;
9042;SDS011;4556;49.150;8.808;2022-07-23T06:35:06;7.50;;;6.80;;
9042;SDS011;4556;49.150;8.808;2022-07-23T06:37:33;7.67;;;6.97;;
9042;SDS011;4556;49.150;8.808;2022-07-23T06:40:01;7.90;;;7.10;;
9042;SDS011;4556;49.150;8.808;2022-07-23T06:42:28;8.73;;;7.83;;
9042;SDS011;4556;49.150;8.808;2022-07-23T06:44:54;8.67;;;6.90;;
9042;SDS011;4556;49.150;8.808;2022-07-23T06:47:21;10.50;;;7.30;;
9042;SDS011;4556;49.150;8.808;2022-07-23T06:49:50;8.63;;;7.50;;
9042;SDS011;4556;49.150;8.808;2022-07-23T06:52:17;9.13;;;6.70;;
9042;SDS011;4556;49.150;8.808;2022-07-23T06:54:44;8.17;;;7.13;;
9042;SDS011;4556;49.150;8.808;2022-07-23T06:57:11;10.30;;;7.87;;
9042;SDS011;4556;49.150;8.808;2022-07-23T06:59:38;8.00;;;7.20;;
9042;SDS011;4556;49.150;8.808;2022-07-23T07:02:05;8.90;;;7.47;;
9042;SDS011;4556;49.150;8.808;2022-07-23T07:04:33;10.47;;;7.20;;
9042;SDS011;4556;49.150;8.808;2022-07-23T07:07:02;8.40;;;7.60;;
9042;SDS011;4556;49.150;8.808;2022-07-23T07:09:29;8.40;;;7.70;;
9042;SDS011;4556;49.150;8.808;2022-07-23T07:11:56;9.97;;;7.60;;
9042;SDS011;4556;49.150;8.808;2022-07-23T07:14:23;7.70;;;6.73;;
9042;SDS011;4556;49.150;8.808;2022-07-23T07:16:50;15.47;;;8.10;;
9042;SDS011;4556;49.150;8.808;2022-07-23T07:19:18;8.27;;;7.53;;
9042;SDS011;4556;49.150;8.808;2022-07-23T07:21:45;8.43;;;7.50;;
9042;SDS011;4556;49.150;8.808;2022-07-23T07:24:14;10.57;;;7.80;;
9042;SDS011;4556;49.150;8.808;2022-07-23T07:26:40;8.83;;;7.40;;
9042;SDS011;4556;49.150;8.808;2022-07-23T07:29:08;8.87;;;6.90;;
9042;SDS011;4556;49.150;8.808;2022-07-23T07:31:35;10.73;;;7.53;;
9042;SDS011;4556;49.150;8.808;2022-07-23T07:34:02;7.60;;;6.90;;
9042;SDS011;4556;49.150;8.808;2022-07-23T07:36:29;8.13;;;7.33;;
9042;SDS011;4556;49.150;8.808;2022-07-23T07:38:57;11.10;;;8.13;;
9042;SDS011;4556;49.150;8.808;2022-07-23T07:41:26;8.57;;;7.33;;
9042;SDS011;4556;49.150;8.808;2022-07-23T07:43:53;8.47;;;7.50;;
9042;SDS011;4556;49.150;8.808;2022-07-23T07:46:20;10.33;;;7.43;;
9042;SDS011;4556;49.150;8.808;2022-07-23T07:48:49;8.53;;;7.37;;
9042;SDS011;4556;49.150;8.808;2022-07-23T07:51:16;7.87;;;7.17;;
9042;SDS011;4556;49.150;8.808;2022-07-23T07:53:43;8.77;;;7.63;;
9042;SDS011;4556;49.150;8.808;2022-07-23T07:56:10;8.23;;;7.20;;
9042;SDS011;4556;49.150;8.808;2022-07-23T07:58:39;8.17;;;7.40;;
9042;SDS011;4556;49.150;8.808;2022-07-23T08:01:06;8.87;;;7.50;;
9042;SDS011;4556;49.150;8.808;2022-07-23T08:03:34;7.90;;;6.93;;
9042;SDS011;4556;49.150;8.808;2022-07-23T08:06:01;8.23;;;7.40;;
9042;SDS011;4556;49.150;8.808;2022-07-23T08:08:29;8.13;;;6.77;;
9042;SDS011;4556;49.150;8.808;2022-07-23T08:10:56;8.13;;;7.37;;
9042;SDS011;4556;49.150;8.808;2022-07-23T08:13:23;7.53;;;6.80;;
9042;SDS011;4556;49.150;8.808;2022-07-23T08:15:52;7.50;;;6.30;;
9042;SDS011;4556;49.150;8.808;2022-07-23T08:18:19;7.43;;;6.27;;
9042;SDS011;4556;49.150;8.808;2022-07-23T08:20:46;7.40;;;6.63;;
9042;SDS011;4556;49.150;8.808;2022-07-23T08:23:16;8.90;;;7.27;;
9042;SDS011;4556;49.150;8.808;2022-07-23T08:25:45;9.67;;;7.33;;
9042;SDS011;4556;49.150;8.808;2022-07-23T08:28:13;8.87;;;6.77;;
9042;SDS011;4556;49.150;8.808;2022-07-23T08:30:40;11.77;;;7.17;;
9042;SDS011;4556;49.150;8.808;2022-07-23T08:33:11;7.77;;;6.70;;
9042;SDS011;4556;49.150;8.808;2022-07-23T08:35:40;7.83;;;6.90;;
9042;SDS011;4556;49.150;8.808;2022-07-23T08:38:09;7.33;;;6.40;;
9042;SDS011;4556;49.150;8.808;2022-07-23T08:40:39;6.43;;;5.83;;
9042;SDS011;4556;49.150;8.808;2022-07-23T08:43:07;12.93;;;6.47;;
9042;SDS011;4556;49.150;8.808;2022-07-23T08:45:36;6.63;;;5.97;;
9042;SDS011;4556;49.150;8.808;2022-07-23T08:48:05;7.33;;;5.97;;
9042;SDS011;4556;49.150;8.808;2022-07-23T08:50:35;6.93;;;6.13;;
9042;SDS011;4556;49.150;8.808;2022-07-23T08:53:05;7.80;;;6.40;;
9042;SDS011;4556;49.150;8.808;2022-07-23T08:55:33;8.43;;;6.60;;
9042;SDS011;4556;49.150;8.808;2022-07-23T08:58:00;7.13;;;6.43;;
9042;SDS011;4556;49.150;8.808;2022-07-23T09:00:28;6.97;;;5.60;;
9042;SDS011;4556;49.150;8.808;2022-07-23T09:02:55;6.67;;;5.87;;
9042;SDS011;4556;49.150;8.808;2022-07-23T09:05:23;7.43;;;6.20;;
9042;SDS011;4556;49.150;8.808;2022-07-23T09:08:19;7.40;;;6.33;;
9042;SDS011;4556;49.150;8.808;2022-07-23T09:10:49;7.67;;;6.20;;
9042;SDS011;4556;49.150;8.808;2022-07-23T09:13:30;7.67;;;6.20;;
9042;SDS011;4556;49.150;8.808;2022-07-23T09:16:00;9.10;;;6.30;;
9042;SDS011;4556;49.150;8.808;2022-07-23T09:18:29;7.77;;;6.43;;
9042;SDS011;4556;49.150;8.808;2022-07-23T09:21:11;6.60;;;5.87;;
9042;SDS011;4556;49.150;8.808;2022-07-23T09:23:47;7.72;;;5.97;;
9042;SDS011;4556;49.150;8.808;2022-07-23T09:26:17;6.85;;;5.70;;
9042;SDS011;4556;49.150;8.808;2022-07-23T09:28:53;7.55;;;6.85;;
9042;SDS011;4556;49.150;8.808;2022-07-23T09:31:22;7.85;;;5.93;;
9042;SDS011;4556;49.150;8.808;2022-07-23T09:33:50;6.53;;;5.93;;
9042;SDS011;4556;49.150;8.808;2022-07-23T09:36:26;6.28;;;5.65;;
9042;SDS011;4556;49.150;8.808;2022-07-23T09:38:57;8.73;;;6.03;;
9042;SDS011;4556;49.150;8.808;2022-07-23T09:41:24;7.47;;;6.10;;
9042;SDS011;4556;49.150;8.808;2022-07-23T09:44:01;8.40;;;7.00;;
9042;SDS011;4556;49.150;8.808;2022-07-23T09:46:35;6.40;;;5.80;;
9042;SDS011;4556;49.150;8.808;2022-07-23T09:49:09;6.05;;;5.53;;
9042;SDS011;4556;49.150;8.808;2022-07-23T09:51:43;7.57;;;6.05;;
9042;SDS011;4556;49.150;8.808;2022-07-23T09:57:04;7.05;;;6.25;;
9042;SDS011;4556;49.150;8.808;2022-07-23T09:59:34;8.98;;;6.28;;
9042;SDS011;4556;49.150;8.808;2022-07-23T10:02:03;7.38;;;6.13;;
9042;SDS011;4556;49.150;8.808;2022-07-23T10:04:32;7.10;;;5.97;;
9042;SDS011;4556;49.150;8.808;2022-07-23T10:07:00;5.90;;;5.30;;
9042;SDS011;4556;49.150;8.808;2022-07-23T10:09:29;6.10;;;5.50;;
9042;SDS011;4556;49.150;8.808;2022-07-23T10:12:00;6.03;;;5.47;;
9042;SDS011;4556;49.150;8.808;2022-07-23T10:14:33;7.23;;;6.20;;
9042;SDS011;4556;49.150;8.808;2022-07-23T10:17:01;6.90;;;6.20;;
9042;SDS011;4556;49.150;8.808;2022-07-23T10:19:28;6.72;;;6.03;;
9042;SDS011;4556;49.150;8.808;2022-07-23T10:21:57;6.85;;;6.13;;
9042;SDS011;4556;49.150;8.808;2022-07-23T10:24:30;7.80;;;6.97;;
9042;SDS011;4556;49.150;8.808;2022-07-23T10:27:20;6.60;;;5.97;;
9042;SDS011;4556;49.150;8.808;2022-07-23T10:30:04;6.13;;;5.60;;
9042;SDS011;4556;49.150;8.808;2022-07-23T10:32:37;6.53;;;5.93;;
9042;SDS011;4556;49.150;8.808;2022-07-23T10:35:13;6.70;;;6.00;;
9042;SDS011;4556;49.150;8.808;2022-07-23T10:37:49;7.40;;;5.67;;
9042;SDS011;4556;49.150;8.808;2022-07-23T10:40:19;6.67;;;5.97;;
9042;SDS011;4556;49.150;8.808;2022-07-23T10:42:50;6.47;;;5.72;;
9042;SDS011;4556;49.150;8.808;2022-07-23T10:45:27;7.25;;;6.25;;
9042;SDS011;4556;49.150;8.808;2022-07-23T10:47:56;6.03;;;5.53;;
9042;SDS011;4556;49.150;8.808;2022-07-23T10:50:38;6.00;;;5.50;;
9042;SDS011;4556;49.150;8.808;2022-07-23T10:53:10;7.65;;;5.88;;
9042;SDS011;4556;49.150;8.808;2022-07-23T10:55:40;9.32;;;6.53;;
9042;SDS011;4556;49.150;8.808;2022-07-23T10:58:21;7.43;;;6.57;;
9042;SDS011;4556;49.150;8.808;2022-07-23T11:00:49;6.45;;;5.75;;
9042;SDS011;4556;49.150;8.808;2022-07-23T11:06:21;6.07;;;5.43;;
9042;SDS011;4556;49.150;8.808;2022-07-23T11:08:51;7.53;;;5.60;;
9042;SDS011;4556;49.150;8.808;2022-07-23T11:11:58;6.27;;;5.67;;
9042;SDS011;4556;49.150;8.808;2022-07-23T11:15:10;5.97;;;5.43;;
9042;SDS011;4556;49.150;8.808;2022-07-23T11:20:25;7.70;;;5.85;;
9042;SDS011;4556;49.150;8.808;2022-07-23T11:22:54;6.43;;;5.78;;
9042;SDS011;4556;49.150;8.808;2022-07-23T11:25:30;6.80;;;6.20;;
9042;SDS011;4556;49.150;8.808;2022-07-23T11:28:09;6.28;;;5.63;;
9042;SDS011;4556;49.150;8.808;2022-07-23T11:30:44;6.30;;;5.50;;
9042;SDS011;4556;49.150;8.808;2022-07-23T11:33:20;5.77;;;4.93;;
9042;SDS011;4556;49.150;8.808;2022-07-23T11:35:49;5.60;;;4.30;;
9042;SDS011;4556;49.150;8.808;2022-07-23T11:38:27;6.30;;;5.70;;
9042;SDS011;4556;49.150;8.808;2022-07-23T11:40:56;5.90;;;5.40;;
9042;SDS011;4556;49.150;8.808;2022-07-23T11:43:24;5.53;;;4.93;;
9042;SDS011;4556;49.150;8.808;2022-07-23T11:45:53;5.28;;;4.88;;
9042;SDS011;4556;49.150;8.808;2022-07-23T11:48:24;6.30;;;5.70;;
9042;SDS011;4556;49.150;8.808;2022-07-23T11:50:53;5.63;;;5.05;;
9042;SDS011;4556;49.150;8.808;2022-07-23T11:53:22;7.07;;;5.40;;
9042;SDS011;4556;49.150;8.808;2022-07-23T11:55:50;6.47;;;5.80;;
9042;SDS011;4556;49.150;8.808;2022-07-23T11:58:19;6.30;;;5.65;;
9042;SDS011;4556;49.150;8.808;2022-07-23T12:00:46;6.28;;;5.70;;
9042;SDS011;4556;49.150;8.808;2022-07-23T12:03:17;6.60;;;5.88;;
9042;SDS011;4556;49.150;8.808;2022-07-23T12:05:44;6.40;;;5.78;;
9042;SDS011;4556;49.150;8.808;2022-07-23T12:08:11;10.02;;;6.40;;
9042;SDS011;4556;49.150;8.808;2022-07-23T12:10:39;6.68;;;5.68;;
9042;SDS011;4556;49.150;8.808;2022-07-23T12:13:08;5.82;;;5.00;;
9042;SDS011;4556;49.150;8.808;2022-07-23T12:15:38;5.78;;;5.10;;
9042;SDS011;4556;49.150;8.808;2022-07-23T12:18:08;7.20;;;5.78;;
9042;SDS011;4556;49.150;8.808;2022-07-23T12:20:39;6.37;;;5.33;;
9042;SDS011;4556;49.150;8.808;2022-07-23T12:23:08;5.30;;;4.80;;
9042;SDS011;4556;49.150;8.808;2022-07-23T12:25:37;5.60;;;4.90;;
9042;SDS011;4556;49.150;8.808;2022-07-23T12:28:07;6.20;;;5.20;;
9042;SDS011;4556;49.150;8.808;2022-07-23T12:30:37;5.88;;;5.38;;
9042;SDS011;4556;49.150;8.808;2022-07-23T12:33:05;6.13;;;5.20;;
9042;SDS011;4556;49.150;8.808;2022-07-23T12:35:35;6.35;;;5.43;;
9042;SDS011;4556;49.150;8.808;2022-07-23T12:38:07;5.85;;;4.70;;
9042;SDS011;4556;49.150;8.808;2022-07-23T12:40:35;5.35;;;4.85;;
9042;SDS011;4556;49.150;8.808;2022-07-23T12:43:07;5.60;;;5.05;;
9042;SDS011;4556;49.150;8.808;2022-07-23T12:45:42;5.70;;;5.03;;
9042;SDS011;4556;49.150;8.808;2022-07-23T12:48:18;8.93;;;5.35;;
9042;SDS011;4556;49.150;8.808;2022-07-23T12:51:01;5.85;;;5.05;;
9042;SDS011;4556;49.150;8.808;2022-07-23T12:53:29;7.03;;;4.97;;
9042;SDS011;4556;49.150;8.808;2022-07-23T12:55:59;7.78;;;4.57;;
9042;SDS011;4556;49.150;8.808;2022-07-23T12:58:38;5.82;;;5.22;;
9042;SDS011;4556;49.150;8.808;2022-07-23T13:01:07;6.90;;;5.43;;
9042;SDS011;4556;49.150;8.808;2022-07-23T13:03:36;5.65;;;5.13;;
9042;SDS011;4556;49.150;8.808;2022-07-23T13:06:07;8.45;;;5.70;;
9042;SDS011;4556;49.150;8.808;2022-07-23T13:08:36;7.40;;;5.30;;
9042;SDS011;4556;49.150;8.808;2022-07-23T13:11:05;6.85;;;5.47;;
9042;SDS011;4556;49.150;8.808;2022-07-23T13:13:33;6.63;;;4.95;;
9042;SDS011;4556;49.150;8.808;2022-07-23T13:16:01;6.15;;;5.07;;
9042;SDS011;4556;49.150;8.808;2022-07-23T13:18:29;7.90;;;4.90;;
9042;SDS011;4556;49.150;8.808;2022-07-23T13:20:57;6.47;;;5.25;;
9042;SDS011;4556;49.150;8.808;2022-07-23T13:23:27;5.95;;;5.30;;
9042;SDS011;4556;49.150;8.808;2022-07-23T13:25:54;6.28;;;5.68;;
9042;SDS011;4556;49.150;8.808;2022-07-23T13:28:21;5.50;;;5.00;;
9042;SDS011;4556;49.150;8.808;2022-07-23T13:30:49;5.60;;;4.93;;
9042;SDS011;4556;49.150;8.808;2022-07-23T13:33:17;6.60;;;5.22;;
9042;SDS011;4556;49.150;8.808;2022-07-23T13:35:45;5.78;;;4.95;;
9042;SDS011;4556;49.150;8.808;2022-07-23T13:38:12;6.10;;;5.50;;
9042;SDS011;4556;49.150;8.808;2022-07-23T13:40:42;6.28;;;5.63;;
9042;SDS011;4556;49.150;8.808;2022-07-23T13:43:14;5.88;;;5.38;;
9042;SDS011;4556;49.150;8.808;2022-07-23T13:45:42;5.93;;;5.35;;
9042;SDS011;4556;49.150;8.808;2022-07-23T13:48:11;5.93;;;5.32;;
9042;SDS011;4556;49.150;8.808;2022-07-23T13:50:39;6.57;;;5.63;;
9042;SDS011;4556;49.150;8.808;2022-07-23T13:53:09;5.60;;;5.05;;
9042;SDS011;4556;49.150;8.808;2022-07-23T13:55:37;5.63;;;5.03;;
9042;SDS011;4556;49.150;8.808;2022-07-23T13:58:07;7.70;;;5.30;;
9042;SDS011;4556;49.150;8.808;2022-07-23T14:00:35;5.80;;;5.22;;
9042;SDS011;4556;49.150;8.808;2022-07-23T14:03:04;7.80;;;5.65;;
9042;SDS011;4556;49.150;8.808;2022-07-23T14:05:32;5.70;;;5.20;;
9042;SDS011;4556;49.150;8.808;2022-07-23T14:07:59;5.10;;;4.70;;
9042;SDS011;4556;49.150;8.808;2022-07-23T14:10:27;5.90;;;5.30;;
9042;SDS011;4556;49.150;8.808;2022-07-23T14:12:54;7.85;;;5.45;;
9042;SDS011;4556;49.150;8.808;2022-07-23T14:15:24;5.80;;;5.20;;
9042;SDS011;4556;49.150;8.808;2022-07-23T14:17:53;7.88;;;5.50;;
9042;SDS011;4556;49.150;8.808;2022-07-23T14:20:21;6.18;;;5.57;;
9042;SDS011;4556;49.150;8.808;2022-07-23T14:22:48;5.80;;;5.30;;
9042;SDS011;4556;49.150;8.808;2022-07-23T14:25:15;6.13;;;5.63;;
9042;SDS011;4556;49.150;8.808;2022-07-23T14:27:43;6.57;;;5.90;;
9042;SDS011;4556;49.150;8.808;2022-07-23T14:30:11;6.45;;;5.85;;
9042;SDS011;4556;49.150;8.808;2022-07-23T14:32:41;6.30;;;5.70;;
9042;SDS011;4556;49.150;8.808;2022-07-23T14:35:09;5.82;;;5.22;;
9042;SDS011;4556;49.150;8.808;2022-07-23T14:37:36;8.20;;;6.22;;
9042;SDS011;4556;49.150;8.808;2022-07-23T14:40:05;6.32;;;5.65;;
9042;SDS011;4556;49.150;8.808;2022-07-23T14:42:33;6.40;;;5.80;;
9042;SDS011;4556;49.150;8.808;2022-07-23T14:45:00;7.28;;;5.63;;
9042;SDS011;4556;49.150;8.808;2022-07-23T14:47:26;6.50;;;5.30;;
9042;SDS011;4556;49.150;8.808;2022-07-23T14:49:55;8.68;;;6.00;;
9042;SDS011;4556;49.150;8.808;2022-07-23T14:52:22;7.28;;;5.72;;
9042;SDS011;4556;49.150;8.808;2022-07-23T14:54:49;6.63;;;5.75;;
9042;SDS011;4556;49.150;8.808;2022-07-23T14:57:16;7.60;;;6.30;;
9042;SDS011;4556;49.150;8.808;2022-07-23T14:59:43;7.40;;;6.07;;
9042;SDS011;4556;49.150;8.808;2022-07-23T15:02:10;6.75;;;6.05;;
9042;SDS011;4556;49.150;8.808;2022-07-23T15:04:37;8.38;;;6.40;;
9042;SDS011;4556;49.150;8.808;2022-07-23T15:07:05;6.38;;;5.78;;
9042;SDS011;4556;49.150;8.808;2022-07-23T15:09:33;6.53;;;5.93;;
9042;SDS011;4556;49.150;8.808;2022-07-23T15:12:00;6.65;;;5.93;;
9042;SDS011;4556;49.150;8.808;2022-07-23T15:14:27;6.60;;;5.90;;
9042;SDS011;4556;49.150;8.808;2022-07-23T15:16:54;6.65;;;6.05;;
9042;SDS011;4556;49.150;8.808;2022-07-23T15:19:21;8.63;;;5.80;;
9042;SDS011;4556;49.150;8.808;2022-07-23T15:21:48;6.57;;;5.85;;
9042;SDS011;4556;49.150;8.808;2022-07-23T15:24:17;6.70;;;5.65;;
9042;SDS011;4556;49.150;8.808;2022-07-23T15:26:44;7.72;;;5.97;;
9042;SDS011;4556;49.150;8.808;2022-07-23T15:29:12;6.95;;;6.05;;
9042;SDS011;4556;49.150;8.808;2022-07-23T15:31:39;6.93;;;6.22;;
9042;SDS011;4556;49.150;8.808;2022-07-23T15:34:06;6.70;;;6.10;;